Time;durP1;ratioP1;P1;durP2;ratioP2;P2;SDS_P1;SDS_P2;PMS_P1;PMS_P2;Temp;Humidity;BMP_temperature;BMP_pressure;BME280_temperature;BME280_humidity;BME280_pressure;Samples;Min_cycle;Max_cycle;Signal;HPM_P1;HPM_P2
2022/10/07 00:04:10;;;;;;;6.80;2.55;;;;;;;;;;9959174;29;20048;-65
2022/10/07 00:09:09;;;;;;;5.88;2.63;;;;;;;;;;9959470;29;20333;-64
2022/10/07 00:14:07;;;;;;;6.05;3.25;;;;;;;;;;9958233;29;20081;-64
2022/10/07 00:19:07;;;;;;;4.30;2.53;;;;;;;;;;9957216;29;20091;-64
2022/10/07 00:24:07;;;;;;;4.07;2.80;;;;;;;;;;9958074;29;20533;-64
2022/10/07 00:29:06;;;;;;;3.90;2.88;;;;;;;;;;9959342;29;20081;-64
2022/10/07 00:34:05;;;;;;;4.20;3.03;;;;;;;;;;9976849;29;20057;-64
2022/10/07 00:39:04;;;;;;;5.80;2.50;;;;;;;;;;9966197;29;20076;-65
2022/10/07 00:44:17;;;;;;;5.65;2.63;;;;;;;;;;9966430;29;20582;-64
2022/10/07 00:49:17;;;;;;;3.25;2.80;;;;;;;;;;9964964;29;20478;-64
2022/10/07 00:54:16;;;;;;;5.70;3.13;;;;;;;;;;9966084;29;20084;-65
2022/10/07 00:59:15;;;;;;;2.97;2.67;;;;;;;;;;9965813;29;20084;-64
2022/10/07 01:04:16;;;;;;;8.68;2.92;;;;;;;;;;9965990;29;20082;-65
2022/10/07 01:09:16;;;;;;;7.95;3.20;;;;;;;;;;9977162;29;20076;-64
2022/10/07 01:14:19;;;;;;;8.90;2.97;;;;;;;;;;9964653;29;20076;-64
2022/10/07 01:19:26;;;;;;;4.07;2.42;;;;;;;;;;9947827;29;20087;-63
2022/10/07 01:24:32;;;;;;;4.03;2.95;;;;;;;;;;9946474;29;20056;-64
2022/10/07 01:29:35;;;;;;;7.72;3.40;;;;;;;;;;9964558;29;20063;-64
2022/10/07 01:34:34;;;;;;;6.40;3.28;;;;;;;;;;9964212;29;20392;-65
2022/10/07 01:39:37;;;;;;;5.57;3.08;;;;;;;;;;9963227;29;20080;-64
2022/10/07 01:44:37;;;;;;;3.67;2.92;;;;;;;;;;9945452;29;20060;-64
2022/10/07 01:49:36;;;;;;;7.60;3.08;;;;;;;;;;9963711;29;20503;-64
2022/10/07 01:54:40;;;;;;;4.65;2.63;;;;;;;;;;9946366;29;20088;-65
2022/10/07 01:59:51;;;;;;;4.03;3.22;;;;;;;;;;9945104;29;20549;-65
2022/10/07 02:04:57;;;;;;;4.25;2.90;;;;;;;;;;9945648;29;20063;-65
2022/10/07 02:09:59;;;;;;;3.33;2.90;;;;;;;;;;9944816;29;20053;-64
2022/10/07 02:15:02;;;;;;;5.82;3.00;;;;;;;;;;9944735;29;20631;-64
2022/10/07 02:20:02;;;;;;;4.15;3.33;;;;;;;;;;9944340;29;20107;-65
2022/10/07 02:25:01;;;;;;;7.25;3.65;;;;;;;;;;9944027;29;20510;-65
2022/10/07 02:30:03;;;;;;;4.88;3.20;;;;;;;;;;9942970;29;20114;-64
2022/10/07 02:35:12;;;;;;;3.80;3.30;;;;;;;;;;9944021;29;20088;-64
2022/10/07 02:40:10;;;;;;;8.20;4.43;;;;;;;;;;9944087;29;20083;-64
2022/10/07 02:45:15;;;;;;;8.02;4.65;;;;;;;;;;9944008;29;20057;-64
2022/10/07 02:50:19;;;;;;;6.13;5.35;;;;;;;;;;9943719;29;20443;-64
2022/10/07 02:55:21;;;;;;;4.10;3.50;;;;;;;;;;9943892;29;20502;-65
2022/10/07 03:00:21;;;;;;;7.95;3.58;;;;;;;;;;9943188;29;20052;-65
2022/10/07 03:05:23;;;;;;;5.60;4.25;;;;;;;;;;9943498;29;20060;-65
2022/10/07 03:10:21;;;;;;;5.53;4.18;;;;;;;;;;9960982;29;20061;-65
2022/10/07 03:15:22;;;;;;;5.40;4.30;;;;;;;;;;9943009;29;20081;-64
2022/10/07 03:20:21;;;;;;;7.68;4.88;;;;;;;;;;9960092;29;20092;-64
2022/10/07 03:25:20;;;;;;;6.65;5.40;;;;;;;;;;9943567;29;20064;-65
2022/10/07 03:30:21;;;;;;;9.27;6.03;;;;;;;;;;9943378;29;20056;-63
2022/10/07 03:35:24;;;;;;;6.00;4.85;;;;;;;;;;9942186;29;20467;-64
2022/10/07 03:40:23;;;;;;;6.63;4.35;;;;;;;;;;9942603;29;20057;-65
2022/10/07 03:45:21;;;;;;;6.70;5.55;;;;;;;;;;9960699;29;20084;-65
2022/10/07 03:50:20;;;;;;;7.10;5.28;;;;;;;;;;9959601;29;20099;-64
2022/10/07 03:55:21;;;;;;;7.78;5.20;;;;;;;;;;9940779;29;20056;-66
2022/10/07 04:00:20;;;;;;;5.53;4.80;;;;;;;;;;9942113;29;20052;-65
2022/10/07 04:05:23;;;;;;;7.15;5.57;;;;;;;;;;9941062;29;20083;-65
2022/10/07 04:10:24;;;;;;;7.20;5.03;;;;;;;;;;9948342;29;20095;-64
2022/10/07 04:15:24;;;;;;;6.00;5.38;;;;;;;;;;9948395;29;20053;-65
2022/10/07 04:20:22;;;;;;;7.07;5.65;;;;;;;;;;9949026;29;20060;-66
2022/10/07 04:25:33;;;;;;;22.02;6.95;;;;;;;;;;9948967;29;20056;-63
2022/10/07 04:30:50;;;;;;;14.18;6.22;;;;;;;;;;9939275;29;20099;-63
2022/10/07 04:35:51;;;;;;;16.92;7.55;;;;;;;;;;9948709;29;20073;-67
2022/10/07 04:40:51;;;;;;;12.98;7.13;;;;;;;;;;9948819;29;20100;-68
2022/10/07 04:45:53;;;;;;;12.07;7.82;;;;;;;;;;9945999;29;20557;-67
2022/10/07 04:50:53;;;;;;;8.90;6.30;;;;;;;;;;9946896;29;20060;-64
2022/10/07 04:55:53;;;;;;;7.65;5.28;;;;;;;;;;9946662;29;20067;-65
2022/10/07 05:00:56;;;;;;;14.27;5.30;;;;;;;;;;9936927;29;20057;-65
2022/10/07 05:05:56;;;;;;;6.25;4.82;;;;;;;;;;9969690;29;20056;-67
2022/10/07 05:11:01;;;;;;;7.05;5.25;;;;;;;;;;9948614;29;20063;-67
2022/10/07 05:16:10;;;;;;;11.77;7.35;;;;;;;;;;9938820;29;20061;-65
2022/10/07 05:21:14;;;;;;;6.30;5.47;;;;;;;;;;9948013;29;20060;-66
2022/10/07 05:26:15;;;;;;;8.15;6.25;;;;;;;;;;9936704;29;20096;-65
2022/10/07 05:31:20;;;;;;;7.97;5.65;;;;;;;;;;9937472;29;20286;-66
2022/10/07 05:36:23;;;;;;;7.13;5.27;;;;;;;;;;9946359;29;20499;-65
2022/10/07 05:41:27;;;;;;;7.65;5.32;;;;;;;;;;9946938;29;20052;-65
2022/10/07 05:46:29;;;;;;;11.27;5.88;;;;;;;;;;9947047;29;20541;-65
2022/10/07 05:51:28;;;;;;;32.08;14.45;;;;;;;;;;9933811;29;20143;-65
2022/10/07 05:56:29;;;;;;;8.07;5.70;;;;;;;;;;9946532;29;20071;-65
2022/10/07 06:01:29;;;;;;;9.02;8.13;;;;;;;;;;9946000;29;20060;-65
2022/10/07 06:06:31;;;;;;;15.27;7.80;;;;;;;;;;9945596;29;20527;-65
2022/10/07 06:16:52;;;;;;;16.58;10.25;;;;;;;;;;9962224;29;20092;-66
2022/10/07 06:21:51;;;;;;;17.80;10.02;;;;;;;;;;9944814;29;20084;-64
2022/10/07 06:26:54;;;;;;;11.40;8.02;;;;;;;;;;9943027;29;20083;-66
2022/10/07 06:31:55;;;;;;;15.75;9.73;;;;;;;;;;9960176;29;20076;-66
2022/10/07 06:36:54;;;;;;;10.43;9.02;;;;;;;;;;9939888;29;20088;-66
2022/10/07 06:41:56;;;;;;;10.35;8.73;;;;;;;;;;9949393;29;20077;-65
2022/10/07 06:47:15;;;;;;;14.93;8.43;;;;;;;;;;9929839;29;20144;-65
2022/10/07 06:52:15;;;;;;;14.27;7.95;;;;;;;;;;9930068;29;20527;-63
2022/10/07 06:57:14;;;;;;;12.25;7.53;;;;;;;;;;9943433;29;20056;-63
2022/10/07 07:02:34;;;;;;;15.90;9.18;;;;;;;;;;9960872;29;20087;-63
2022/10/07 07:07:34;;;;;;;53.47;38.90;;;;;;;;;;9943254;29;20094;-66
2022/10/07 07:12:32;;;;;;;52.40;36.28;;;;;;;;;;9943321;29;20088;-65
2022/10/07 07:17:30;;;;;;;13.77;9.13;;;;;;;;;;9958863;29;20094;-64
2022/10/07 07:22:30;;;;;;;15.88;8.38;;;;;;;;;;9942971;29;20527;-65
2022/10/07 07:27:29;;;;;;;22.08;9.05;;;;;;;;;;9943270;29;20098;-65
2022/10/07 07:32:28;;;;;;;16.17;8.75;;;;;;;;;;9943082;29;20468;-64
2022/10/07 07:37:28;;;;;;;12.60;8.00;;;;;;;;;;9943088;29;20095;-65
2022/10/07 07:42:29;;;;;;;23.63;14.80;;;;;;;;;;9929569;29;20085;-64
2022/10/07 07:47:28;;;;;;;10.75;8.63;;;;;;;;;;9931665;29;20499;-64
2022/10/07 07:52:27;;;;;;;16.77;12.13;;;;;;;;;;9930956;29;20041;-65
2022/10/07 07:57:29;;;;;;;22.55;9.93;;;;;;;;;;9943086;29;20080;-65
2022/10/07 08:02:32;;;;;;;12.98;8.95;;;;;;;;;;9942708;29;20049;-65
2022/10/07 08:07:31;;;;;;;19.75;9.05;;;;;;;;;;9942253;29;20088;-64
2022/10/07 08:12:33;;;;;;;89.97;76.18;;;;;;;;;;9941500;29;20056;-64
2022/10/07 08:17:32;;;;;;;13.52;6.82;;;;;;;;;;9941906;29;20063;-64
2022/10/07 08:22:30;;;;;;;13.30;8.82;;;;;;;;;;9941624;29;20059;-64
2022/10/07 08:27:29;;;;;;;11.38;7.28;;;;;;;;;;9941463;29;20079;-64
2022/10/07 08:32:29;;;;;;;19.70;7.75;;;;;;;;;;9958438;29;20080;-65
2022/10/07 08:37:28;;;;;;;17.55;9.18;;;;;;;;;;9958508;29;20088;-64
2022/10/07 08:42:30;;;;;;;13.73;7.65;;;;;;;;;;9958740;29;20059;-65
2022/10/07 08:47:35;;;;;;;10.40;7.28;;;;;;;;;;9957843;29;20052;-63
2022/10/07 08:52:44;;;;;;;13.48;7.47;;;;;;;;;;9959679;29;20426;-65
2022/10/07 08:57:48;;;;;;;10.88;6.68;;;;;;;;;;9965009;29;20052;-65
2022/10/07 09:02:57;;;;;;;10.85;6.90;;;;;;;;;;9965028;29;20072;-66
2022/10/07 09:07:57;;;;;;;18.83;6.90;;;;;;;;;;9977343;29;20088;-64
2022/10/07 09:12:58;;;;;;;15.90;10.57;;;;;;;;;;9964962;29;20084;-65
2022/10/07 09:18:02;;;;;;;14.85;7.95;;;;;;;;;;9965289;29;20515;-64
2022/10/07 09:23:01;;;;;;;18.25;7.72;;;;;;;;;;9963845;29;20099;-65
2022/10/07 09:27:59;;;;;;;14.38;7.60;;;;;;;;;;9964465;29;20088;-66
2022/10/07 09:32:59;;;;;;;19.13;7.70;;;;;;;;;;9964424;29;20088;-64
2022/10/07 09:37:59;;;;;;;19.55;8.40;;;;;;;;;;9962389;29;20060;-65
2022/10/07 09:42:58;;;;;;;13.18;8.13;;;;;;;;;;9963880;29;20506;-65
2022/10/07 09:47:57;;;;;;;15.05;7.30;;;;;;;;;;9963832;29;20087;-65
2022/10/07 09:52:57;;;;;;;12.60;6.60;;;;;;;;;;9962731;29;20080;-64
2022/10/07 09:57:59;;;;;;;11.77;6.82;;;;;;;;;;9963001;29;20048;-64
2022/10/07 10:03:00;;;;;;;10.38;5.53;;;;;;;;;;9961844;29;20091;-65
2022/10/07 10:08:05;;;;;;;12.25;6.57;;;;;;;;;;9961958;29;20091;-64
2022/10/07 10:13:04;;;;;;;9.75;5.70;;;;;;;;;;9961863;29;20111;-64
2022/10/07 10:18:03;;;;;;;10.50;5.30;;;;;;;;;;9945520;29;20064;-65
2022/10/07 10:23:22;;;;;;;15.02;6.32;;;;;;;;;;9962375;29;20667;-65
2022/10/07 10:28:27;;;;;;;9.20;5.72;;;;;;;;;;9961889;29;20144;-63
2022/10/07 10:33:29;;;;;;;7.75;5.45;;;;;;;;;;9941394;29;20439;-63
2022/10/07 10:38:35;;;;;;;15.95;5.25;;;;;;;;;;9934237;29;20076;-62
2022/10/07 10:43:40;;;;;;;9.90;5.82;;;;;;;;;;9934472;29;20080;-61
2022/10/07 10:48:43;;;;;;;8.18;4.57;;;;;;;;;;9954839;29;20088;-62
2022/10/07 10:53:47;;;;;;;8.50;5.05;;;;;;;;;;9960844;29;20260;-62
2022/10/07 10:58:45;;;;;;;;;;;;;;;;;;9960349;29;20088;-63
2022/10/07 11:03:49;;;;;;;9.25;4.40;;;;;;;;;;9939605;29;19982;-63
2022/10/07 11:08:51;;;;;;;6.95;4.22;;;;;;;;;;9934000;29;20081;-62
2022/10/07 11:13:53;;;;;;;8.73;4.45;;;;;;;;;;9955319;29;20075;-63
2022/10/07 11:18:53;;;;;;;5.45;3.83;;;;;;;;;;9943035;29;20067;-62
2022/10/07 11:23:58;;;;;;;9.48;4.10;;;;;;;;;;9960288;29;20087;-63
2022/10/07 11:28:58;;;;;;;8.47;4.97;;;;;;;;;;9959733;29;20083;-63
2022/10/07 11:34:03;;;;;;;4.28;3.80;;;;;;;;;;9960344;29;20060;-62
2022/10/07 11:39:03;;;;;;;7.55;4.15;;;;;;;;;;9960095;29;20557;-63
2022/10/07 11:44:03;;;;;;;8.38;3.60;;;;;;;;;;9936007;29;20213;-62
2022/10/07 11:49:03;;;;;;;12.85;3.75;;;;;;;;;;9932496;29;20096;-63
2022/10/07 11:54:05;;;;;;;6.47;4.15;;;;;;;;;;9931789;29;20073;-63
2022/10/07 11:59:04;;;;;;;11.45;4.38;;;;;;;;;;9956260;29;20088;-63
2022/10/07 12:04:17;;;;;;;7.78;4.97;;;;;;;;;;9957438;29;20088;-62
2022/10/07 12:09:30;;;;;;;10.73;5.13;;;;;;;;;;9933602;29;20521;-63
2022/10/07 12:14:42;;;;;;;9.65;5.05;;;;;;;;;;9928214;29;20083;-62
2022/10/07 12:19:41;;;;;;;5.20;4.30;;;;;;;;;;9912229;29;20088;-64
2022/10/07 12:24:42;;;;;;;9.60;5.13;;;;;;;;;;9931965;29;20079;-63
2022/10/07 12:29:50;;;;;;;12.32;7.57;;;;;;;;;;9936548;29;20099;-62
2022/10/07 12:34:48;;;;;;;14.73;10.15;;;;;;;;;;9937920;29;20096;-63
2022/10/07 12:39:47;;;;;;;9.68;6.93;;;;;;;;;;9938456;29;20096;-63
2022/10/07 12:44:50;;;;;;;8.20;5.97;;;;;;;;;;9938137;29;20089;-63
2022/10/07 12:49:50;;;;;;;7.90;6.22;;;;;;;;;;9938379;29;20096;-63
2022/10/07 12:54:50;;;;;;;9.02;4.85;;;;;;;;;;9964587;29;20518;-62
2022/10/07 12:59:55;;;;;;;9.63;5.20;;;;;;;;;;9965821;29;20068;-63
2022/10/07 13:05:05;;;;;;;6.30;4.30;;;;;;;;;;9950814;29;20432;-63
2022/10/07 13:10:23;;;;;;;11.40;4.60;;;;;;;;;;9972956;29;20087;-62
2022/10/07 13:15:27;;;;;;;5.85;3.80;;;;;;;;;;9963949;29;20099;-64
2022/10/07 13:20:32;;;;;;;10.65;4.93;;;;;;;;;;9963232;29;20088;-62
2022/10/07 13:25:31;;;;;;;6.10;4.03;;;;;;;;;;9964003;29;20510;-64
2022/10/07 13:30:34;;;;;;;5.22;4.05;;;;;;;;;;9936895;29;20087;-63
2022/10/07 13:35:36;;;;;;;6.95;4.45;;;;;;;;;;9936270;29;20092;-62
2022/10/07 13:40:38;;;;;;;10.55;4.45;;;;;;;;;;9962942;29;20083;-63
2022/10/07 13:45:39;;;;;;;7.75;4.78;;;;;;;;;;9962632;29;20597;-63
2022/10/07 13:50:39;;;;;;;12.65;4.60;;;;;;;;;;9962332;29;20180;-62
2022/10/07 13:55:39;;;;;;;12.00;4.97;;;;;;;;;;9963430;29;20091;-61
2022/10/07 14:00:42;;;;;;;10.90;3.83;;;;;;;;;;9962338;29;20084;-61
2022/10/07 14:05:48;;;;;;;7.93;4.43;;;;;;;;;;9961834;29;20095;-62
2022/10/07 14:10:50;;;;;;;9.95;5.60;;;;;;;;;;9961871;29;20080;-63
2022/10/07 14:15:50;;;;;;;9.48;5.75;;;;;;;;;;9961613;29;20088;-62
2022/10/07 14:20:51;;;;;;;9.95;5.45;;;;;;;;;;9961404;29;20080;-62
2022/10/07 14:25:53;;;;;;;9.68;5.30;;;;;;;;;;9955414;29;20499;-62
2022/10/07 14:36:24;;;;;;;8.18;5.05;;;;;;;;;;9940219;29;20076;-61
2022/10/07 14:41:23;;;;;;;5.97;4.53;;;;;;;;;;9926669;29;20080;-61
2022/10/07 14:46:21;;;;;;;15.50;7.63;;;;;;;;;;9936060;29;20482;-60
2022/10/07 14:51:21;;;;;;;13.60;7.35;;;;;;;;;;9937045;29;20087;-61
2022/10/07 14:56:23;;;;;;;10.60;6.63;;;;;;;;;;9938377;29;20080;-60
2022/10/07 15:01:21;;;;;;;19.30;6.85;;;;;;;;;;9950033;29;20084;-60
2022/10/07 15:06:20;;;;;;;16.00;8.13;;;;;;;;;;9952946;29;20072;-61
2022/10/07 15:11:20;;;;;;;10.70;6.43;;;;;;;;;;9940812;29;20083;-61
2022/10/07 15:16:20;;;;;;;14.57;7.70;;;;;;;;;;9940053;29;20072;-61
2022/10/07 15:21:19;;;;;;;11.52;6.85;;;;;;;;;;9958558;29;20080;-61
2022/10/07 15:26:18;;;;;;;16.25;7.28;;;;;;;;;;9952296;29;20099;-60
2022/10/07 15:31:16;;;;;;;15.55;8.80;;;;;;;;;;9952638;29;20099;-60
2022/10/07 15:36:17;;;;;;;17.23;10.23;;;;;;;;;;9941355;29;20160;-61
2022/10/07 15:41:27;;;;;;;13.52;9.00;;;;;;;;;;9930841;29;20096;-59
2022/10/07 15:46:26;;;;;;;19.02;10.10;;;;;;;;;;9923828;29;20080;-60
2022/10/07 15:51:28;;;;;;;16.80;8.57;;;;;;;;;;9924892;29;20069;-61
2022/10/07 15:56:26;;;;;;;16.02;8.57;;;;;;;;;;9934007;29;20089;-60
2022/10/07 16:01:26;;;;;;;11.50;7.15;;;;;;;;;;9934372;29;20099;-62
2022/10/07 16:06:27;;;;;;;14.73;7.78;;;;;;;;;;9949452;29;20072;-60
2022/10/07 16:11:26;;;;;;;12.60;8.30;;;;;;;;;;9945973;29;20084;-59
2022/10/07 16:16:25;;;;;;;11.82;7.45;;;;;;;;;;9944575;29;20073;-59
2022/10/07 16:21:26;;;;;;;13.57;9.02;;;;;;;;;;9946433;29;20080;-59
2022/10/07 16:26:28;;;;;;;20.90;10.23;;;;;;;;;;9944367;29;20081;-60
2022/10/07 16:31:27;;;;;;;20.58;12.13;;;;;;;;;;9937811;29;21135;-59
2022/10/07 16:36:26;;;;;;;21.52;11.38;;;;;;;;;;9926508;29;20518;-60
2022/10/07 16:41:26;;;;;;;20.90;12.13;;;;;;;;;;9925942;29;20085;-60
2022/10/07 16:46:25;;;;;;;28.77;11.65;;;;;;;;;;9940230;29;20088;-61
2022/10/07 16:51:24;;;;;;;17.67;8.93;;;;;;;;;;9951453;29;20076;-60
2022/10/07 16:56:23;;;;;;;11.98;8.38;;;;;;;;;;9945147;29;20084;-60
2022/10/07 17:01:23;;;;;;;17.88;8.80;;;;;;;;;;9935369;29;20091;-61
2022/10/07 17:06:22;;;;;;;11.68;8.13;;;;;;;;;;9948329;29;20091;-60
2022/10/07 17:11:30;;;;;;;12.32;6.32;;;;;;;;;;9964427;29;20639;-60
2022/10/07 17:16:31;;;;;;;10.55;7.18;;;;;;;;;;9964412;29;20197;-60
2022/10/07 17:21:29;;;;;;;16.80;10.52;;;;;;;;;;9959961;29;20077;-61
2022/10/07 17:26:28;;;;;;;13.50;8.50;;;;;;;;;;9936432;29;20072;-61
2022/10/07 17:31:27;;;;;;;13.25;8.63;;;;;;;;;;9940270;29;20084;-60
2022/10/07 17:36:28;;;;;;;15.18;8.13;;;;;;;;;;9953111;29;20076;-61
2022/10/07 17:41:27;;;;;;;19.45;9.98;;;;;;;;;;9964702;29;20546;-62
2022/10/07 17:46:26;;;;;;;25.48;9.23;;;;;;;;;;9956000;29;20579;-60
2022/10/07 17:51:27;;;;;;;20.02;9.43;;;;;;;;;;9955128;29;20084;-61
2022/10/07 17:56:30;;;;;;;21.27;9.82;;;;;;;;;;9951218;29;20092;-61
2022/10/07 18:01:34;;;;;;;17.23;9.30;;;;;;;;;;9966129;29;20084;-61
2022/10/07 18:06:33;;;;;;;14.10;7.70;;;;;;;;;;9943834;29;20080;-61
2022/10/07 18:16:49;;;;;;;11.23;7.07;;;;;;;;;;9939785;29;20084;-60
2022/10/07 18:21:50;;;;;;;14.43;8.10;;;;;;;;;;9945611;29;20482;-61
2022/10/07 18:26:50;;;;;;;11.77;5.47;;;;;;;;;;9956084;29;20084;-61
2022/10/07 18:31:48;;;;;;;9.35;5.53;;;;;;;;;;9934638;29;20081;-61
2022/10/07 18:36:47;;;;;;;8.13;5.50;;;;;;;;;;9953851;29;20091;-60
2022/10/07 18:41:52;;;;;;;11.82;6.22;;;;;;;;;;9953553;29;20080;-61
2022/10/07 18:46:50;;;;;;;12.68;6.18;;;;;;;;;;9958149;29;20080;-60
2022/10/07 18:51:49;;;;;;;9.82;5.75;;;;;;;;;;9948335;29;20093;-62
2022/10/07 18:56:52;;;;;;;8.82;6.03;;;;;;;;;;9947708;29;20073;-61
2022/10/07 19:01:55;;;;;;;8.45;5.40;;;;;;;;;;9933424;29;20080;-61
2022/10/07 19:06:53;;;;;;;12.43;6.28;;;;;;;;;;9933808;29;20081;-61
2022/10/07 19:11:55;;;;;;;9.80;6.35;;;;;;;;;;9966275;29;20083;-61
2022/10/07 19:16:58;;;;;;;9.50;5.55;;;;;;;;;;9960019;29;20175;-61
2022/10/07 19:21:57;;;;;;;7.45;5.43;;;;;;;;;;9959367;29;20091;-61
2022/10/07 19:26:57;;;;;;;8.02;5.22;;;;;;;;;;9952045;29;20546;-60
2022/10/07 19:31:56;;;;;;;7.85;6.50;;;;;;;;;;9933079;29;20080;-59
2022/10/07 19:36:56;;;;;;;12.93;6.78;;;;;;;;;;9932227;29;20072;-60
2022/10/07 19:41:55;;;;;;;13.45;7.22;;;;;;;;;;9931690;29;20083;-60
2022/10/07 19:46:54;;;;;;;10.48;7.50;;;;;;;;;;9931656;29;20083;-61
2022/10/07 19:51:57;;;;;;;11.33;6.73;;;;;;;;;;9932116;29;20096;-60
2022/10/07 19:56:55;;;;;;;9.70;6.88;;;;;;;;;;9931948;29;20076;-60
2022/10/07 20:01:55;;;;;;;9.07;6.35;;;;;;;;;;9933403;29;20475;-61
2022/10/07 20:06:58;;;;;;;12.77;6.35;;;;;;;;;;9932889;29;20068;-61
2022/10/07 20:11:56;;;;;;;9.75;6.65;;;;;;;;;;9932064;29;20511;-61
2022/10/07 20:16:56;;;;;;;14.65;6.78;;;;;;;;;;9933419;29;20088;-60
2022/10/07 20:21:55;;;;;;;8.73;7.22;;;;;;;;;;9931652;29;20080;-61
2022/10/07 20:26:53;;;;;;;10.15;6.93;;;;;;;;;;9930141;29;20124;-61
2022/10/07 20:31:51;;;;;;;11.13;7.68;;;;;;;;;;9930541;29;20331;-60
2022/10/07 20:36:53;;;;;;;10.27;9.23;;;;;;;;;;9929434;29;20467;-61
2022/10/07 20:47:09;;;;;;;16.27;9.50;;;;;;;;;;9927532;29;20084;-59
2022/10/07 20:52:12;;;;;;;13.35;9.38;;;;;;;;;;9933873;29;20091;-60
2022/10/07 20:57:11;;;;;;;11.43;9.25;;;;;;;;;;9937600;29;20094;-61
2022/10/07 21:02:09;;;;;;;16.20;10.73;;;;;;;;;;9939071;29;20164;-60
2022/10/07 21:07:10;;;;;;;14.63;10.75;;;;;;;;;;9946267;29;20083;-60
2022/10/07 21:12:09;;;;;;;13.20;10.13;;;;;;;;;;9937956;29;20412;-59
2022/10/07 21:17:07;;;;;;;18.17;11.07;;;;;;;;;;9938273;29;20072;-61
2022/10/07 21:22:06;;;;;;;15.52;11.27;;;;;;;;;;9937768;29;20088;-59
2022/10/07 21:27:08;;;;;;;17.05;11.85;;;;;;;;;;9946455;29;20523;-60
2022/10/07 21:32:07;;;;;;;22.60;11.68;;;;;;;;;;9964115;29;20084;-59
2022/10/07 21:37:08;;;;;;;17.15;11.18;;;;;;;;;;9947554;29;20056;-61
2022/10/07 21:42:08;;;;;;;12.00;10.48;;;;;;;;;;9953445;29;20088;-61
2022/10/07 21:47:06;;;;;;;13.15;10.65;;;;;;;;;;9937260;29;20076;-61
2022/10/07 21:52:04;;;;;;;13.15;8.63;;;;;;;;;;9937326;29;20096;-61
2022/10/07 21:57:03;;;;;;;18.88;8.88;;;;;;;;;;9935753;29;20494;-60
2022/10/07 22:02:03;;;;;;;12.63;7.82;;;;;;;;;;9936561;29;20392;-61
2022/10/07 22:12:18;;;;;;;16.10;9.80;;;;;;;;;;9936795;29;20084;-61
2022/10/07 22:17:18;;;;;;;18.10;10.00;;;;;;;;;;9936095;29;20076;-61
2022/10/07 22:22:16;;;;;;;12.70;9.45;;;;;;;;;;9936596;29;20091;-61
2022/10/07 22:27:15;;;;;;;15.20;9.52;;;;;;;;;;9935607;29;20476;-61
2022/10/07 22:32:13;;;;;;;16.23;9.98;;;;;;;;;;9935202;29;20080;-60
2022/10/07 22:37:13;;;;;;;21.08;11.48;;;;;;;;;;9935406;29;20468;-60
2022/10/07 22:42:13;;;;;;;15.85;9.60;;;;;;;;;;9935155;29;20080;-60
2022/10/07 22:47:11;;;;;;;21.38;10.68;;;;;;;;;;9934642;29;20464;-60
2022/10/07 22:52:10;;;;;;;15.95;10.43;;;;;;;;;;9933966;29;20505;-61
2022/10/07 22:57:09;;;;;;;15.15;10.05;;;;;;;;;;9933988;29;20604;-61
2022/10/07 23:02:09;;;;;;;28.05;10.75;;;;;;;;;;9933992;29;20084;-60
2022/10/07 23:07:07;;;;;;;15.75;10.25;;;;;;;;;;9933022;29;20060;-61
2022/10/07 23:12:05;;;;;;;14.20;10.90;;;;;;;;;;9933981;29;20490;-60
2022/10/07 23:17:05;;;;;;;17.15;10.55;;;;;;;;;;9933997;29;20085;-60
2022/10/07 23:22:03;;;;;;;14.60;10.30;;;;;;;;;;9933046;29;20105;-60
2022/10/07 23:27:02;;;;;;;14.73;10.52;;;;;;;;;;9933384;29;20071;-61
2022/10/07 23:32:00;;;;;;;19.42;12.30;;;;;;;;;;9933307;29;20097;-61
2022/10/07 23:37:00;;;;;;;25.15;12.40;;;;;;;;;;9933041;29;20487;-60
2022/10/07 23:41:58;;;;;;;17.20;12.07;;;;;;;;;;9933319;29;20159;-59
2022/10/07 23:46:56;;;;;;;18.02;11.65;;;;;;;;;;9932898;29;20507;-61
2022/10/07 23:51:54;;;;;;;17.70;12.52;;;;;;;;;;9932631;29;20099;-60
2022/10/07 23:56:54;;;;;;;15.65;10.77;;;;;;;;;;9932647;29;20085;-60
